Time;durP1;ratioP1;P1;durP2;ratioP2;P2;SDS_P1;SDS_P2;PMS_P1;PMS_P2;Temp;Humidity;BMP_temperature;BMP_pressure;BME280_temperature;BME280_humidity;BME280_pressure;Samples;Min_cycle;Max_cycle;Signal;HPM_P1;HPM_P2
2023/06/01 00:02:13;;;;;;;3.90;2.00;;;;;;;;;;5032373;28;20197;-67
2023/06/01 00:04:41;;;;;;;4.10;2.03;;;;;;;;;;5032725;28;20214;-67
2023/06/01 00:07:08;;;;;;;2.22;1.70;;;;;;;;;;5031642;28;20239;-67
2023/06/01 00:09:35;;;;;;;1.90;1.73;;;;;;;;;;5033211;28;20289;-67
2023/06/01 00:12:05;;;;;;;2.85;1.80;;;;;;;;;;5030906;28;20216;-67
2023/06/01 00:14:32;;;;;;;2.80;1.70;;;;;;;;;;5032940;28;20203;-67
2023/06/01 00:16:59;;;;;;;3.88;2.10;;;;;;;;;;5028776;28;20227;-67
2023/06/01 00:19:26;;;;;;;3.50;1.60;;;;;;;;;;5032229;28;20216;-67
2023/06/01 00:21:55;;;;;;;3.42;2.08;;;;;;;;;;5032495;28;20270;-66
2023/06/01 00:24:22;;;;;;;1.90;1.80;;;;;;;;;;5030341;28;20238;-67
2023/06/01 00:26:49;;;;;;;3.50;2.05;;;;;;;;;;5030783;28;20211;-67
2023/06/01 00:29:18;;;;;;;3.25;2.05;;;;;;;;;;5028998;28;20196;-67
2023/06/01 00:31:45;;;;;;;3.03;2.00;;;;;;;;;;5033103;28;20212;-67
2023/06/01 00:34:12;;;;;;;2.70;1.63;;;;;;;;;;5030267;28;20262;-67
2023/06/01 00:36:40;;;;;;;1.85;1.60;;;;;;;;;;5032575;28;20207;-67
2023/06/01 00:39:08;;;;;;;7.47;2.33;;;;;;;;;;5032435;28;20200;-67
2023/06/01 00:41:35;;;;;;;2.63;1.98;;;;;;;;;;5031839;28;20217;-67
2023/06/01 00:44:03;;;;;;;3.25;1.73;;;;;;;;;;5032482;28;20215;-67
2023/06/01 00:46:32;;;;;;;2.70;2.00;;;;;;;;;;5030569;28;20207;-67
2023/06/01 00:48:59;;;;;;;2.33;1.92;;;;;;;;;;5033111;28;20219;-67
2023/06/01 00:51:27;;;;;;;3.17;1.75;;;;;;;;;;5032756;28;20269;-67
2023/06/01 00:53:54;;;;;;;2.28;2.03;;;;;;;;;;5029395;28;20208;-67
2023/06/01 00:56:21;;;;;;;1.75;1.50;;;;;;;;;;5032282;28;20204;-67
2023/06/01 00:58:49;;;;;;;2.55;2.20;;;;;;;;;;5030506;28;20193;-67
2023/06/01 01:01:19;;;;;;;3.50;2.13;;;;;;;;;;5032687;28;20192;-67
2023/06/01 01:03:49;;;;;;;1.75;1.65;;;;;;;;;;5032266;28;20201;-67
2023/06/01 01:06:22;;;;;;;3.58;1.90;;;;;;;;;;5031128;28;20208;-67
2023/06/01 01:08:55;;;;;;;3.03;1.90;;;;;;;;;;5032844;28;20199;-67
2023/06/01 01:11:25;;;;;;;2.72;2.20;;;;;;;;;;5030981;28;20200;-67
2023/06/01 01:13:54;;;;;;;2.85;1.70;;;;;;;;;;5031327;28;20223;-67
2023/06/01 01:16:27;;;;;;;3.25;2.03;;;;;;;;;;5026231;28;20205;-67
2023/06/01 01:18:59;;;;;;;2.97;2.20;;;;;;;;;;5028485;28;20208;-67
2023/06/01 01:21:29;;;;;;;4.63;2.17;;;;;;;;;;5028120;28;20215;-67
2023/06/01 01:24:06;;;;;;;2.10;1.65;;;;;;;;;;5030109;28;20322;-66
2023/06/01 01:26:43;;;;;;;1.92;1.80;;;;;;;;;;5029027;28;20207;-67
2023/06/01 01:29:13;;;;;;;3.30;1.70;;;;;;;;;;5029776;28;20207;-67
2023/06/01 01:31:42;;;;;;;2.25;1.90;;;;;;;;;;5029589;28;20208;-67
2023/06/01 01:34:10;;;;;;;4.40;2.10;;;;;;;;;;5032162;28;20208;-67
2023/06/01 01:36:37;;;;;;;3.00;1.90;;;;;;;;;;5031540;28;20212;-67
2023/06/01 01:39:05;;;;;;;2.65;2.20;;;;;;;;;;5032423;28;20196;-67
2023/06/01 01:41:32;;;;;;;2.10;1.90;;;;;;;;;;5030432;28;20208;-67
2023/06/01 01:44:00;;;;;;;3.30;2.00;;;;;;;;;;5028753;28;20237;-67
2023/06/01 01:46:29;;;;;;;3.35;1.85;;;;;;;;;;5028575;28;20223;-67
2023/06/01 01:49:00;;;;;;;2.50;2.30;;;;;;;;;;5032488;28;20267;-67
2023/06/01 01:51:31;;;;;;;3.35;2.03;;;;;;;;;;5026984;28;20293;-67
2023/06/01 01:53:59;;;;;;;2.10;1.92;;;;;;;;;;5027231;28;20226;-67
2023/06/01 01:56:26;;;;;;;4.10;2.28;;;;;;;;;;5028279;28;20204;-67
2023/06/01 01:58:54;;;;;;;2.38;1.98;;;;;;;;;;5032384;28;20205;-67
2023/06/01 02:01:22;;;;;;;2.38;2.00;;;;;;;;;;5029783;28;20270;-67
2023/06/01 02:03:58;;;;;;;3.08;1.92;;;;;;;;;;5031431;28;20215;-67
2023/06/01 02:06:25;;;;;;;2.15;1.98;;;;;;;;;;5027080;28;20208;-67
2023/06/01 02:08:52;;;;;;;2.20;1.80;;;;;;;;;;5029963;28;20211;-66
2023/06/01 02:11:20;;;;;;;2.55;1.80;;;;;;;;;;5029492;28;20199;-67
2023/06/01 02:13:47;;;;;;;3.45;1.90;;;;;;;;;;5031587;28;20208;-67
2023/06/01 02:16:15;;;;;;;2.42;2.00;;;;;;;;;;5030906;28;20275;-67
2023/06/01 02:18:45;;;;;;;2.75;2.00;;;;;;;;;;5030404;28;20208;-67
2023/06/01 02:21:14;;;;;;;1.80;1.70;;;;;;;;;;5029713;28;20231;-66
2023/06/01 02:23:42;;;;;;;3.90;1.92;;;;;;;;;;5030268;28;20236;-67
2023/06/01 02:26:09;;;;;;;4.25;2.17;;;;;;;;;;5029933;28;20197;-66
2023/06/01 02:28:38;;;;;;;2.10;1.90;;;;;;;;;;5028913;28;20219;-67
2023/06/01 02:31:05;;;;;;;4.40;2.25;;;;;;;;;;5032145;28;20196;-67
2023/06/01 02:33:32;;;;;;;2.40;1.90;;;;;;;;;;5031142;28;20228;-67
2023/06/01 02:35:59;;;;;;;2.20;2.00;;;;;;;;;;5031042;28;20226;-67
2023/06/01 02:38:28;;;;;;;5.57;2.05;;;;;;;;;;5031167;28;20216;-66
2023/06/01 02:40:55;;;;;;;3.05;2.03;;;;;;;;;;5030874;28;20203;-67
2023/06/01 02:43:22;;;;;;;2.45;1.70;;;;;;;;;;5030769;28;20203;-67
2023/06/01 02:45:49;;;;;;;2.20;2.00;;;;;;;;;;5030239;28;20206;-67
2023/06/01 02:48:17;;;;;;;2.40;2.20;;;;;;;;;;5029507;28;20192;-67
2023/06/01 02:50:44;;;;;;;2.92;2.20;;;;;;;;;;5030126;28;20262;-67
2023/06/01 02:53:11;;;;;;;2.95;2.03;;;;;;;;;;5022177;28;20319;-67
2023/06/01 02:55:40;;;;;;;2.00;1.67;;;;;;;;;;5025098;28;20200;-67
2023/06/01 02:58:14;;;;;;;2.17;1.98;;;;;;;;;;5026127;28;20192;-67
2023/06/01 03:00:41;;;;;;;3.00;2.28;;;;;;;;;;5028709;28;20199;-67
2023/06/01 03:03:09;;;;;;;2.08;1.80;;;;;;;;;;5029181;28;20192;-67
2023/06/01 03:05:36;;;;;;;4.68;2.03;;;;;;;;;;5028854;28;20203;-67
2023/06/01 03:08:03;;;;;;;2.75;1.85;;;;;;;;;;5029739;28;20207;-67
2023/06/01 03:10:30;;;;;;;2.22;1.85;;;;;;;;;;5028540;28;20215;-67
2023/06/01 03:12:59;;;;;;;2.47;1.88;;;;;;;;;;5030434;28;20215;-67
2023/06/01 03:15:27;;;;;;;4.05;1.92;;;;;;;;;;5027930;28;20200;-67
2023/06/01 03:17:54;;;;;;;4.95;2.20;;;;;;;;;;5023767;28;20215;-67
2023/06/01 03:20:22;;;;;;;2.53;2.00;;;;;;;;;;5029085;28;20201;-67
2023/06/01 03:22:49;;;;;;;2.45;2.00;;;;;;;;;;5029903;28;20200;-67
2023/06/01 03:25:17;;;;;;;2.67;2.13;;;;;;;;;;5029053;28;20200;-67
2023/06/01 03:27:45;;;;;;;4.18;2.30;;;;;;;;;;5028620;28;20204;-67
2023/06/01 03:30:14;;;;;;;4.20;2.35;;;;;;;;;;5033559;28;20200;-67
2023/06/01 03:32:43;;;;;;;2.85;2.10;;;;;;;;;;5032285;28;20257;-67
2023/06/01 03:35:11;;;;;;;4.28;2.60;;;;;;;;;;5030971;28;20196;-67
2023/06/01 03:37:38;;;;;;;3.05;2.20;;;;;;;;;;5033618;28;20211;-67
2023/06/01 03:40:10;;;;;;;5.47;1.88;;;;;;;;;;5031085;28;20200;-67
2023/06/01 03:42:37;;;;;;;3.15;1.98;;;;;;;;;;5031995;28;20204;-67
2023/06/01 03:45:05;;;;;;;4.35;2.28;;;;;;;;;;5033821;28;20257;-67
2023/06/01 03:47:34;;;;;;;2.88;1.98;;;;;;;;;;5031319;28;20208;-67
2023/06/01 03:50:01;;;;;;;4.15;2.50;;;;;;;;;;5033313;28;20207;-67
2023/06/01 03:52:29;;;;;;;4.10;2.00;;;;;;;;;;5032161;28;20204;-67
2023/06/01 03:54:56;;;;;;;3.65;2.13;;;;;;;;;;5033025;28;20197;-67
2023/06/01 03:57:23;;;;;;;4.07;2.55;;;;;;;;;;5029561;28;20254;-67
2023/06/01 03:59:51;;;;;;;3.22;2.17;;;;;;;;;;5025934;28;20192;-67
2023/06/01 04:02:18;;;;;;;2.78;2.50;;;;;;;;;;5032419;28;20208;-67
2023/06/01 04:04:47;;;;;;;1.88;1.77;;;;;;;;;;5032450;28;20209;-67
2023/06/01 04:07:18;;;;;;;2.22;1.85;;;;;;;;;;5029870;28;20231;-66
2023/06/01 04:09:45;;;;;;;2.80;1.90;;;;;;;;;;5030134;28;20200;-66
2023/06/01 04:12:13;;;;;;;3.42;2.05;;;;;;;;;;5028423;28;20211;-67
2023/06/01 04:14:40;;;;;;;4.18;2.10;;;;;;;;;;5028282;28;20228;-67
2023/06/01 04:17:07;;;;;;;2.92;2.25;;;;;;;;;;5032070;28;20203;-67
2023/06/01 04:19:34;;;;;;;4.45;2.35;;;;;;;;;;5033169;28;20208;-67
2023/06/01 04:22:03;;;;;;;4.80;2.35;;;;;;;;;;5031315;28;20231;-67
2023/06/01 04:24:30;;;;;;;3.13;2.00;;;;;;;;;;5031467;28;20227;-67
2023/06/01 04:26:58;;;;;;;3.30;2.20;;;;;;;;;;5033620;28;20199;-67
2023/06/01 04:29:26;;;;;;;3.50;2.13;;;;;;;;;;5033726;28;20247;-67
2023/06/01 04:31:54;;;;;;;4.03;2.17;;;;;;;;;;5032952;28;20204;-67
2023/06/01 04:34:23;;;;;;;3.22;2.28;;;;;;;;;;5033747;28;20281;-67
2023/06/01 04:36:51;;;;;;;3.08;2.25;;;;;;;;;;5034324;28;20201;-67
2023/06/01 04:39:19;;;;;;;3.97;2.40;;;;;;;;;;5031573;28;20205;-67
2023/06/01 04:41:48;;;;;;;2.92;2.15;;;;;;;;;;5031411;28;20203;-67
2023/06/01 04:44:16;;;;;;;2.13;1.85;;;;;;;;;;5029236;28;20188;-67
2023/06/01 04:46:44;;;;;;;4.55;2.38;;;;;;;;;;5033017;28;20207;-68
2023/06/01 04:49:11;;;;;;;4.32;1.98;;;;;;;;;;5032834;28;20200;-67
2023/06/01 04:51:40;;;;;;;2.67;2.08;;;;;;;;;;5033377;28;20267;-66
2023/06/01 04:54:07;;;;;;;3.58;2.10;;;;;;;;;;5033808;28;20283;-67
2023/06/01 04:56:35;;;;;;;3.17;2.10;;;;;;;;;;5033617;28;20210;-67
2023/06/01 04:59:05;;;;;;;2.30;2.10;;;;;;;;;;5031757;28;20212;-67
2023/06/01 05:01:32;;;;;;;3.45;1.88;;;;;;;;;;5030302;28;20231;-67
2023/06/01 05:04:00;;;;;;;3.20;2.10;;;;;;;;;;5032507;28;20318;-67
2023/06/01 05:06:27;;;;;;;4.55;2.10;;;;;;;;;;5032703;28;20287;-67
2023/06/01 05:08:55;;;;;;;4.30;2.10;;;;;;;;;;5030971;28;20232;-67
2023/06/01 05:11:22;;;;;;;3.20;2.35;;;;;;;;;;5032141;28;20207;-67
2023/06/01 05:13:52;;;;;;;4.30;2.30;;;;;;;;;;5032187;28;20287;-67
2023/06/01 05:16:19;;;;;;;3.28;2.05;;;;;;;;;;5030305;28;20200;-67
2023/06/01 05:18:46;;;;;;;3.05;2.20;;;;;;;;;;5032500;28;20210;-67
2023/06/01 05:21:13;;;;;;;3.25;1.88;;;;;;;;;;5032333;28;20211;-66
2023/06/01 05:23:41;;;;;;;3.30;2.00;;;;;;;;;;5031119;28;20235;-66
2023/06/01 05:26:08;;;;;;;2.55;2.10;;;;;;;;;;5032632;28;20204;-66
2023/06/01 05:28:36;;;;;;;2.78;2.20;;;;;;;;;;5033606;28;20204;-66
2023/06/01 05:31:05;;;;;;;3.97;2.10;;;;;;;;;;5032524;28;20200;-66
2023/06/01 05:33:32;;;;;;;3.95;2.30;;;;;;;;;;5031017;28;20226;-66
2023/06/01 05:35:59;;;;;;;3.83;2.25;;;;;;;;;;5030096;28;20208;-65
2023/06/01 05:38:27;;;;;;;4.95;2.40;;;;;;;;;;5031423;28;20210;-66
2023/06/01 05:40:54;;;;;;;4.13;2.30;;;;;;;;;;5026549;28;20208;-67
2023/06/01 05:43:21;;;;;;;3.28;2.03;;;;;;;;;;5031402;28;20205;-66
2023/06/01 05:45:49;;;;;;;2.67;2.13;;;;;;;;;;5030934;28;20220;-66
2023/06/01 05:48:18;;;;;;;2.08;1.80;;;;;;;;;;5028076;28;20350;-65
2023/06/01 05:50:45;;;;;;;3.40;1.85;;;;;;;;;;5031071;28;20200;-65
2023/06/01 05:53:12;;;;;;;3.33;2.13;;;;;;;;;;5027643;28;20205;-65
2023/06/01 05:55:40;;;;;;;2.95;2.20;;;;;;;;;;5029276;28;20295;-65
2023/06/01 05:58:07;;;;;;;3.78;2.28;;;;;;;;;;5028261;28;20207;-65
2023/06/01 06:00:35;;;;;;;6.88;2.15;;;;;;;;;;5028602;28;20208;-65
2023/06/01 06:03:04;;;;;;;2.78;2.10;;;;;;;;;;5031130;28;20207;-65
2023/06/01 06:05:32;;;;;;;4.28;2.47;;;;;;;;;;5030640;28;20239;-64
2023/06/01 06:08:00;;;;;;;2.97;2.03;;;;;;;;;;5031188;28;20226;-65
2023/06/01 06:10:28;;;;;;;3.47;2.03;;;;;;;;;;5026909;28;20208;-65
2023/06/01 06:13:03;;;;;;;3.58;1.95;;;;;;;;;;5069520;28;20615;-64
2023/06/01 06:15:30;;;;;;;3.92;2.20;;;;;;;;;;5072866;28;20202;-64
2023/06/01 06:17:57;;;;;;;3.13;2.05;;;;;;;;;;5067771;28;20207;-64
2023/06/01 06:20:24;;;;;;;2.30;1.98;;;;;;;;;;5070651;28;20202;-64
2023/06/01 06:22:52;;;;;;;3.22;2.20;;;;;;;;;;5070461;28;20198;-64
2023/06/01 06:25:19;;;;;;;2.85;2.10;;;;;;;;;;5067765;28;20202;-63
2023/06/01 06:27:46;;;;;;;2.47;2.08;;;;;;;;;;5071421;28;20209;-63
2023/06/01 06:30:15;;;;;;;3.45;2.05;;;;;;;;;;5069452;28;20278;-63
2023/06/01 06:32:42;;;;;;;2.30;2.10;;;;;;;;;;5066844;28;20218;-63
2023/06/01 06:35:12;;;;;;;4.88;2.25;;;;;;;;;;5071908;28;20210;-64
2023/06/01 06:37:39;;;;;;;4.65;1.95;;;;;;;;;;5070359;28;20305;-63
2023/06/01 06:40:07;;;;;;;3.47;2.22;;;;;;;;;;5073177;28;20198;-63
2023/06/01 06:42:35;;;;;;;4.22;2.17;;;;;;;;;;5071471;28;20294;-64
2023/06/01 06:45:02;;;;;;;3.72;2.13;;;;;;;;;;5070312;28;20296;-64
2023/06/01 06:47:31;;;;;;;4.18;2.15;;;;;;;;;;5066800;28;20206;-63
2023/06/01 06:49:58;;;;;;;5.55;2.10;;;;;;;;;;5068013;28;20202;-64
2023/06/01 06:52:25;;;;;;;3.92;2.22;;;;;;;;;;5073988;28;20214;-63
2023/06/01 06:54:52;;;;;;;2.83;1.85;;;;;;;;;;5064317;28;20206;-63
2023/06/01 06:57:19;;;;;;;2.88;1.95;;;;;;;;;;5064890;28;20199;-63
2023/06/01 06:59:47;;;;;;;2.85;2.00;;;;;;;;;;5061584;28;20289;-63
2023/06/01 07:02:14;;;;;;;3.22;1.98;;;;;;;;;;5064342;28;20196;-63
2023/06/01 07:04:42;;;;;;;3.70;2.20;;;;;;;;;;5068278;28;20203;-63
2023/06/01 07:07:10;;;;;;;5.43;2.58;;;;;;;;;;5059248;28;20199;-63
2023/06/01 07:09:37;;;;;;;3.30;1.90;;;;;;;;;;5057759;28;20257;-63
2023/06/01 07:12:05;;;;;;;3.03;1.92;;;;;;;;;;5067407;28;20237;-63
2023/06/01 07:14:32;;;;;;;2.80;2.10;;;;;;;;;;5066501;28;20207;-64
2023/06/01 07:17:00;;;;;;;2.35;2.15;;;;;;;;;;5062092;28;20213;-64
2023/06/01 07:19:32;;;;;;;3.95;2.10;;;;;;;;;;5065044;28;20203;-64
2023/06/01 07:22:01;;;;;;;4.13;2.08;;;;;;;;;;5062767;28;20199;-63
2023/06/01 07:24:28;;;;;;;4.47;2.22;;;;;;;;;;5044936;28;20200;-64
2023/06/01 07:26:57;;;;;;;2.88;1.70;;;;;;;;;;5040105;28;20295;-63
2023/06/01 07:29:24;;;;;;;2.20;1.80;;;;;;;;;;5057011;28;20252;-64
2023/06/01 07:31:52;;;;;;;2.28;1.85;;;;;;;;;;5046484;28;20215;-64
2023/06/01 07:34:20;;;;;;;3.58;1.67;;;;;;;;;;5053337;28;20202;-64
2023/06/01 07:36:48;;;;;;;3.58;2.03;;;;;;;;;;5049678;28;20275;-64
2023/06/01 07:39:17;;;;;;;2.03;1.58;;;;;;;;;;5057906;28;20199;-63
2023/06/01 07:41:46;;;;;;;3.13;1.77;;;;;;;;;;5046582;28;20207;-65
2023/06/01 07:44:18;;;;;;;3.25;1.60;;;;;;;;;;5052964;28;20196;-66
2023/06/01 07:46:45;;;;;;;4.63;1.95;;;;;;;;;;5048418;28;20446;-66
2023/06/01 07:49:13;;;;;;;2.50;1.73;;;;;;;;;;5049833;28;20211;-66
2023/06/01 07:51:40;;;;;;;2.25;1.60;;;;;;;;;;5053515;28;20331;-66
2023/06/01 07:54:08;;;;;;;2.22;1.67;;;;;;;;;;5056792;28;20271;-66
2023/06/01 07:56:36;;;;;;;2.30;1.70;;;;;;;;;;5051105;28;20488;-63
2023/06/01 07:59:04;;;;;;;4.57;1.92;;;;;;;;;;5047542;28;20212;-63
2023/06/01 08:01:31;;;;;;;2.20;1.80;;;;;;;;;;5050266;28;20205;-64
2023/06/01 08:03:58;;;;;;;2.83;1.70;;;;;;;;;;5056216;28;20199;-64
2023/06/01 08:06:26;;;;;;;4.05;2.10;;;;;;;;;;5050917;28;20290;-64
2023/06/01 08:08:53;;;;;;;2.28;1.73;;;;;;;;;;5052718;28;20199;-64
2023/06/01 08:11:21;;;;;;;2.53;1.60;;;;;;;;;;5047889;28;20230;-64
2023/06/01 08:13:50;;;;;;;2.72;1.77;;;;;;;;;;5055804;28;20243;-64
2023/06/01 08:16:17;;;;;;;2.88;1.63;;;;;;;;;;5053200;28;20203;-65
2023/06/01 08:18:45;;;;;;;4.18;1.83;;;;;;;;;;5053856;28;20204;-64
2023/06/01 08:21:12;;;;;;;3.38;1.85;;;;;;;;;;5055961;28;20260;-64
2023/06/01 08:23:40;;;;;;;3.65;1.92;;;;;;;;;;5053776;28;20204;-64
2023/06/01 08:26:07;;;;;;;2.22;1.73;;;;;;;;;;5064071;28;20226;-63
2023/06/01 08:28:34;;;;;;;5.25;1.80;;;;;;;;;;5049688;28;20195;-64
2023/06/01 08:31:03;;;;;;;2.25;1.70;;;;;;;;;;5065541;28;20267;-64
2023/06/01 08:33:30;;;;;;;2.85;2.00;;;;;;;;;;5053255;28;20234;-64
2023/06/01 08:35:57;;;;;;;2.47;1.75;;;;;;;;;;5062475;28;20201;-64
2023/06/01 08:38:29;;;;;;;2.22;1.67;;;;;;;;;;5051975;28;20218;-64
2023/06/01 08:40:57;;;;;;;3.05;1.77;;;;;;;;;;5055186;28;20209;-66
2023/06/01 08:43:26;;;;;;;2.67;1.80;;;;;;;;;;5054122;28;20202;-66
2023/06/01 08:45:54;;;;;;;3.45;1.70;;;;;;;;;;5052218;28;20214;-64
2023/06/01 08:48:23;;;;;;;2.30;1.90;;;;;;;;;;5053083;28;20302;-64
2023/06/01 08:50:53;;;;;;;3.90;2.30;;;;;;;;;;5053420;28;20207;-64
2023/06/01 08:53:21;;;;;;;1.80;1.65;;;;;;;;;;5055006;28;20361;-66
2023/06/01 08:55:51;;;;;;;3.42;1.90;;;;;;;;;;5059211;28;20294;-65
2023/06/01 08:58:19;;;;;;;1.60;1.50;;;;;;;;;;5046101;28;20214;-67
2023/06/01 09:00:49;;;;;;;3.60;1.98;;;;;;;;;;5052358;28;20513;-67
2023/06/01 09:03:16;;;;;;;2.72;1.90;;;;;;;;;;5052975;28;20195;-67
2023/06/01 09:05:44;;;;;;;2.67;1.70;;;;;;;;;;5049882;28;20211;-67
2023/06/01 09:08:11;;;;;;;2.70;1.60;;;;;;;;;;5053459;28;20211;-66
2023/06/01 09:10:39;;;;;;;2.25;1.60;;;;;;;;;;5050121;28;20210;-65
2023/06/01 09:13:06;;;;;;;4.38;1.90;;;;;;;;;;5053008;28;20219;-65
2023/06/01 09:15:33;;;;;;;5.00;1.92;;;;;;;;;;5054737;28;20206;-65
2023/06/01 09:18:07;;;;;;;2.15;1.90;;;;;;;;;;5054037;28;20206;-65
2023/06/01 09:20:37;;;;;;;3.13;1.90;;;;;;;;;;5054976;28;20227;-65
2023/06/01 09:23:06;;;;;;;3.13;1.70;;;;;;;;;;5060790;28;20253;-65
2023/06/01 09:25:33;;;;;;;3.80;1.90;;;;;;;;;;5056374;28;20210;-65
2023/06/01 09:28:02;;;;;;;2.42;1.70;;;;;;;;;;5057921;28;20203;-65
2023/06/01 09:30:39;;;;;;;5.22;1.80;;;;;;;;;;5054412;28;20200;-65
2023/06/01 09:33:12;;;;;;;2.38;1.70;;;;;;;;;;5061936;28;20214;-68
2023/06/01 09:35:40;;;;;;;3.25;1.85;;;;;;;;;;5058030;28;20230;-68
2023/06/01 09:38:08;;;;;;;3.45;1.83;;;;;;;;;;5058675;28;20222;-68
2023/06/01 09:40:36;;;;;;;2.00;1.65;;;;;;;;;;5052795;28;20204;-68
2023/06/01 09:43:03;;;;;;;3.30;1.90;;;;;;;;;;5058549;28;20199;-65
2023/06/01 09:45:32;;;;;;;3.60;1.88;;;;;;;;;;5048543;28;20289;-65
2023/06/01 09:48:17;;;;;;;1.92;1.73;;;;;;;;;;5058303;28;20214;-65
2023/06/01 09:50:44;;;;;;;3.08;2.03;;;;;;;;;;5057006;28;20265;-65
2023/06/01 09:53:14;;;;;;;2.67;1.80;;;;;;;;;;5054466;28;20219;-65
2023/06/01 09:55:57;;;;;;;1.95;1.60;;;;;;;;;;5057272;28;20249;-65
2023/06/01 09:58:24;;;;;;;4.47;2.00;;;;;;;;;;5056466;28;20206;-65
2023/06/01 10:00:52;;;;;;;1.90;1.67;;;;;;;;;;5055342;28;20233;-65
2023/06/01 10:03:21;;;;;;;1.55;1.45;;;;;;;;;;5050335;28;20196;-65
2023/06/01 10:05:48;;;;;;;2.72;1.90;;;;;;;;;;5047346;28;20227;-65
2023/06/01 10:08:18;;;;;;;2.42;2.00;;;;;;;;;;5057525;28;20207;-65
2023/06/01 10:10:47;;;;;;;2.08;1.77;;;;;;;;;;5052677;28;20214;-65
2023/06/01 10:13:14;;;;;;;1.95;1.75;;;;;;;;;;5052852;28;20214;-65
2023/06/01 10:15:42;;;;;;;2.70;1.92;;;;;;;;;;5053566;28;20207;-65
2023/06/01 10:18:09;;;;;;;2.55;1.80;;;;;;;;;;5051862;28;20195;-65
2023/06/01 10:20:37;;;;;;;3.47;1.85;;;;;;;;;;5058884;28;20195;-67
2023/06/01 10:23:05;;;;;;;3.53;1.90;;;;;;;;;;5054398;28;20198;-68
2023/06/01 10:25:35;;;;;;;4.25;1.67;;;;;;;;;;5053061;28;20211;-65
2023/06/01 10:28:04;;;;;;;4.15;1.73;;;;;;;;;;5060274;28;20227;-66
2023/06/01 10:30:31;;;;;;;4.32;2.10;;;;;;;;;;5053712;28;20257;-66
2023/06/01 10:32:58;;;;;;;3.83;1.70;;;;;;;;;;5052181;28;20219;-66
2023/06/01 10:35:44;;;;;;;2.97;1.65;;;;;;;;;;5050533;28;20210;-67
2023/06/01 10:38:23;;;;;;;2.63;1.90;;;;;;;;;;5057677;28;20206;-67
2023/06/01 10:40:52;;;;;;;4.57;2.00;;;;;;;;;;5052506;28;20203;-64
2023/06/01 10:43:38;;;;;;;4.13;1.98;;;;;;;;;;5055058;28;20201;-68
2023/06/01 10:46:25;;;;;;;3.95;2.08;;;;;;;;;;5047701;28;20203;-67
2023/06/01 10:48:54;;;;;;;2.55;1.88;;;;;;;;;;5046712;28;20212;-64
2023/06/01 10:51:23;;;;;;;1.98;1.80;;;;;;;;;;5055423;28;20211;-64
2023/06/01 10:53:51;;;;;;;4.63;1.90;;;;;;;;;;5057728;28;20211;-64
2023/06/01 10:56:23;;;;;;;4.07;2.03;;;;;;;;;;5050153;28;20208;-64
2023/06/01 10:59:05;;;;;;;2.15;1.80;;;;;;;;;;5063741;28;20211;-65
2023/06/01 11:01:32;;;;;;;2.25;1.55;;;;;;;;;;5054501;28;20203;-64
2023/06/01 11:04:01;;;;;;;3.05;1.70;;;;;;;;;;5065743;28;20192;-64
2023/06/01 11:06:31;;;;;;;2.50;2.00;;;;;;;;;;5064215;28;20285;-65
2023/06/01 11:08:59;;;;;;;4.70;1.70;;;;;;;;;;5043705;28;20200;-66
2023/06/01 11:11:41;;;;;;;4.70;1.95;;;;;;;;;;5055021;28;20243;-65
2023/06/01 11:14:11;;;;;;;3.92;2.22;;;;;;;;;;5046535;28;20301;-65
2023/06/01 11:16:38;;;;;;;2.80;1.88;;;;;;;;;;5057919;28;20253;-64
2023/06/01 11:19:08;;;;;;;4.13;1.92;;;;;;;;;;5062256;28;20203;-64
2023/06/01 11:21:37;;;;;;;3.60;1.90;;;;;;;;;;5055461;28;20207;-65
2023/06/01 11:24:08;;;;;;;3.72;2.20;;;;;;;;;;5052743;28;20195;-64
2023/06/01 11:26:37;;;;;;;2.97;2.08;;;;;;;;;;5052776;28;20281;-66
2023/06/01 11:29:06;;;;;;;2.00;1.80;;;;;;;;;;5057828;28;20202;-65
2023/06/01 11:31:37;;;;;;;3.85;2.10;;;;;;;;;;5053502;28;20207;-65
2023/06/01 11:34:04;;;;;;;2.95;1.63;;;;;;;;;;5057434;28;20211;-65
2023/06/01 11:36:37;;;;;;;2.55;1.70;;;;;;;;;;5054119;28;20204;-65
2023/06/01 11:39:07;;;;;;;5.32;1.75;;;;;;;;;;5057301;28;20199;-65
2023/06/01 11:41:35;;;;;;;4.53;2.13;;;;;;;;;;5055134;28;20200;-66
2023/06/01 11:44:02;;;;;;;3.67;1.92;;;;;;;;;;5058231;28;20203;-66
2023/06/01 11:46:30;;;;;;;2.50;1.95;;;;;;;;;;5056554;28;20203;-66
2023/06/01 11:49:01;;;;;;;3.67;1.95;;;;;;;;;;5057761;28;20203;-66
2023/06/01 11:51:29;;;;;;;4.07;1.98;;;;;;;;;;5054981;28;20293;-65
2023/06/01 11:53:57;;;;;;;3.22;1.95;;;;;;;;;;5053954;28;20219;-65
2023/06/01 11:56:30;;;;;;;4.03;1.90;;;;;;;;;;5055258;28;20207;-65
2023/06/01 11:58:59;;;;;;;2.20;1.70;;;;;;;;;;5052131;28;20212;-65
2023/06/01 12:01:26;;;;;;;2.88;1.80;;;;;;;;;;5053262;28;20200;-65
2023/06/01 12:03:54;;;;;;;2.47;1.80;;;;;;;;;;5056339;28;20202;-65
2023/06/01 12:06:21;;;;;;;3.03;1.90;;;;;;;;;;5052662;28;20210;-66
2023/06/01 12:08:50;;;;;;;3.92;1.85;;;;;;;;;;5053886;28;20211;-66
2023/06/01 12:11:21;;;;;;;2.33;1.80;;;;;;;;;;5055501;28;20227;-65
2023/06/01 12:13:48;;;;;;;3.63;2.13;;;;;;;;;;5053906;28;20219;-65
2023/06/01 12:16:16;;;;;;;3.00;2.03;;;;;;;;;;5055200;28;20237;-64
2023/06/01 12:18:43;;;;;;;4.57;2.13;;;;;;;;;;5056774;28;20245;-65
2023/06/01 12:21:11;;;;;;;3.47;2.10;;;;;;;;;;5054319;28;20199;-65
2023/06/01 12:23:38;;;;;;;2.78;1.98;;;;;;;;;;5050683;28;20205;-65
2023/06/01 12:26:07;;;;;;;3.38;1.77;;;;;;;;;;5052236;28;20207;-65
2023/06/01 12:28:50;;;;;;;3.10;2.25;;;;;;;;;;5061968;28;20210;-64
2023/06/01 12:31:19;;;;;;;8.30;2.35;;;;;;;;;;5057661;28;20194;-65
2023/06/01 12:33:48;;;;;;;2.72;1.95;;;;;;;;;;5057044;28;20251;-66
2023/06/01 12:36:31;;;;;;;4.75;2.20;;;;;;;;;;5057923;28;20206;-65
2023/06/01 12:38:59;;;;;;;4.82;2.03;;;;;;;;;;5052235;28;20211;-64
2023/06/01 12:41:27;;;;;;;3.83;1.92;;;;;;;;;;5062630;28;20244;-67
2023/06/01 12:43:54;;;;;;;1.90;1.75;;;;;;;;;;5055630;28;20208;-65
2023/06/01 12:46:23;;;;;;;3.17;2.00;;;;;;;;;;5053878;28;20235;-65
2023/06/01 12:48:51;;;;;;;2.40;2.03;;;;;;;;;;5057824;28;20209;-65
2023/06/01 12:51:18;;;;;;;6.95;2.00;;;;;;;;;;5055377;28;20212;-65
2023/06/01 12:53:45;;;;;;;4.00;1.85;;;;;;;;;;5053482;28;20231;-65
2023/06/01 12:56:13;;;;;;;4.57;2.00;;;;;;;;;;5056332;28;20191;-65
2023/06/01 12:58:40;;;;;;;2.30;1.90;;;;;;;;;;5053003;28;20196;-65
2023/06/01 13:01:08;;;;;;;3.97;2.17;;;;;;;;;;5057861;28;20297;-65
2023/06/01 13:03:36;;;;;;;3.92;2.17;;;;;;;;;;5057719;28;20290;-65
2023/06/01 13:06:03;;;;;;;7.88;2.10;;;;;;;;;;5053117;28;20199;-66
2023/06/01 13:08:31;;;;;;;2.97;1.90;;;;;;;;;;5045117;28;20206;-64
2023/06/01 13:10:58;;;;;;;3.28;2.10;;;;;;;;;;5049718;28;20274;-64
2023/06/01 13:13:25;;;;;;;3.38;2.05;;;;;;;;;;5051644;28;20219;-65
2023/06/01 13:15:53;;;;;;;5.30;2.05;;;;;;;;;;5052558;28;20218;-64
2023/06/01 13:18:20;;;;;;;3.95;2.20;;;;;;;;;;5054944;28;20203;-64
2023/06/01 13:20:48;;;;;;;2.38;2.00;;;;;;;;;;5051473;28;20200;-64
2023/06/01 13:23:17;;;;;;;2.25;1.80;;;;;;;;;;5048451;28;20203;-66
2023/06/01 13:25:44;;;;;;;6.35;2.47;;;;;;;;;;5045980;28;20226;-67
2023/06/01 13:28:11;;;;;;;3.22;2.00;;;;;;;;;;5051209;28;20195;-65
2023/06/01 13:30:40;;;;;;;4.57;2.10;;;;;;;;;;5048733;28;20222;-70
2023/06/01 13:33:07;;;;;;;4.20;2.45;;;;;;;;;;5050469;28;20210;-72
2023/06/01 13:35:34;;;;;;;4.68;2.40;;;;;;;;;;5050094;28;20200;-73
2023/06/01 13:38:03;;;;;;;3.55;1.92;;;;;;;;;;5057139;28;20222;-72
2023/06/01 13:40:30;;;;;;;4.15;2.08;;;;;;;;;;5045327;28;20211;-70
2023/06/01 13:42:57;;;;;;;2.88;2.00;;;;;;;;;;5048485;28;20196;-69
2023/06/01 13:45:25;;;;;;;7.18;2.10;;;;;;;;;;5051712;28;20244;-72
2023/06/01 13:47:54;;;;;;;4.68;2.10;;;;;;;;;;5047927;28;20215;-70
2023/06/01 13:50:22;;;;;;;2.83;2.10;;;;;;;;;;5045890;28;20204;-69
2023/06/01 13:52:49;;;;;;;5.22;2.20;;;;;;;;;;5049575;28;20196;-70
2023/06/01 13:55:17;;;;;;;4.80;2.13;;;;;;;;;;5051147;28;20215;-73
2023/06/01 13:57:45;;;;;;;3.97;2.42;;;;;;;;;;5050318;28;20195;-73
2023/06/01 14:00:13;;;;;;;3.97;1.98;;;;;;;;;;5049253;28;20238;-72
2023/06/01 14:02:41;;;;;;;3.70;2.20;;;;;;;;;;5055591;28;20202;-71
2023/06/01 14:05:10;;;;;;;5.50;2.30;;;;;;;;;;5048226;28;20203;-70
2023/06/01 14:07:37;;;;;;;4.45;1.95;;;;;;;;;;5049092;28;20205;-72
2023/06/01 14:10:06;;;;;;;4.32;2.10;;;;;;;;;;5055269;28;20210;-70
2023/06/01 14:12:34;;;;;;;3.35;2.20;;;;;;;;;;5049277;28;20281;-70
2023/06/01 14:15:02;;;;;;;3.85;2.15;;;;;;;;;;5053397;28;20242;-70
2023/06/01 14:17:29;;;;;;;4.03;2.30;;;;;;;;;;5057143;28;20207;-70
2023/06/01 14:19:56;;;;;;;5.13;2.50;;;;;;;;;;5049210;28;20199;-70
2023/06/01 14:22:23;;;;;;;4.40;2.67;;;;;;;;;;5046275;28;20235;-70
2023/06/01 14:24:50;;;;;;;3.33;2.92;;;;;;;;;;5049173;28;20202;-70
2023/06/01 14:27:18;;;;;;;3.53;3.22;;;;;;;;;;5046680;28;20200;-71
2023/06/01 14:29:46;;;;;;;5.60;3.45;;;;;;;;;;5050484;28;20210;-71
2023/06/01 14:32:13;;;;;;;4.50;3.10;;;;;;;;;;5047152;28;20199;-71
2023/06/01 14:34:40;;;;;;;3.97;3.10;;;;;;;;;;5055061;28;20231;-71
2023/06/01 14:37:10;;;;;;;4.22;3.65;;;;;;;;;;5052271;28;20203;-71
2023/06/01 14:39:38;;;;;;;3.10;2.90;;;;;;;;;;5059684;28;20203;-70
2023/06/01 14:42:06;;;;;;;5.70;3.40;;;;;;;;;;5057119;28;20195;-71
2023/06/01 14:44:33;;;;;;;5.93;3.65;;;;;;;;;;5053353;28;20195;-70
2023/06/01 14:47:02;;;;;;;4.45;3.80;;;;;;;;;;5054350;28;20201;-70
2023/06/01 14:49:30;;;;;;;5.15;3.92;;;;;;;;;;5057325;28;20201;-68
2023/06/01 14:51:57;;;;;;;6.22;4.43;;;;;;;;;;5053330;28;20267;-70